Time;durP1;ratioP1;P1;durP2;ratioP2;P2;SDS_P1;SDS_P2;PMS_P1;PMS_P2;Temp;Humidity;BMP_temperature;BMP_pressure;BME280_temperature;BME280_humidity;BME280_pressure;Samples;Min_cycle;Max_cycle;Signal;HPM_P1;HPM_P2
2022/04/12 00:01:05;;;;;;;15.35;11.23;;;7.80;99.90;;;;;;5034282;28;20071;-88
2022/04/12 00:03:31;;;;;;;14.45;11.60;;;7.80;99.90;;;;;;5034017;28;20134;-88
2022/04/12 00:05:56;;;;;;;16.25;11.65;;;7.80;99.90;;;;;;5034383;28;20637;-88
2022/04/12 00:08:22;;;;;;;16.95;12.30;;;7.70;99.90;;;;;;5033986;28;20483;-88
2022/04/12 00:10:49;;;;;;;18.80;12.52;;;7.60;99.90;;;;;;5051910;28;20051;-88
2022/04/12 00:13:18;;;;;;;20.70;12.63;;;7.60;99.90;;;;;;5017825;28;20049;-87
2022/04/12 00:15:44;;;;;;;18.65;12.57;;;7.50;99.90;;;;;;5034252;28;20052;-89
2022/04/12 00:20:54;;;;;;;19.98;12.98;;;7.50;99.90;;;;;;5050524;28;20121;-88
2022/04/12 00:23:20;;;;;;;15.68;11.77;;;7.30;99.90;;;;;;5017849;28;20439;-88
2022/04/12 00:25:46;;;;;;;17.08;12.43;;;7.30;99.90;;;;;;5018887;28;20278;-88
2022/04/12 00:28:13;;;;;;;18.20;12.98;;;7.20;99.90;;;;;;5054186;28;20037;-88
2022/04/12 00:30:39;;;;;;;19.15;12.07;;;7.20;99.90;;;;;;5037433;28;20051;-88
2022/04/12 00:33:05;;;;;;;15.27;11.43;;;7.10;99.90;;;;;;5054742;28;20056;-88
2022/04/12 00:35:31;;;;;;;15.40;11.93;;;7.00;99.90;;;;;;5037644;28;20442;-88
2022/04/12 00:37:57;;;;;;;18.25;12.90;;;7.10;99.90;;;;;;5037571;28;20048;-88
2022/04/12 00:40:24;;;;;;;17.20;11.90;;;7.00;99.90;;;;;;5020989;28;20057;-88
2022/04/12 00:42:50;;;;;;;15.55;10.90;;;7.10;99.90;;;;;;5053935;28;20111;-88
2022/04/12 00:45:17;;;;;;;17.88;11.50;;;7.10;99.90;;;;;;5037026;28;20049;-88
2022/04/12 00:47:43;;;;;;;16.45;11.63;;;7.00;99.90;;;;;;5055160;28;20041;-88
2022/04/12 00:50:10;;;;;;;14.88;11.20;;;7.00;99.90;;;;;;5037244;28;20084;-88
2022/04/12 00:52:48;;;;;;;16.63;10.75;;;7.00;99.90;;;;;;5020750;28;20057;-87
2022/04/12 00:55:16;;;;;;;17.25;11.75;;;7.00;99.90;;;;;;5037429;28;20060;-88
2022/04/12 00:57:42;;;;;;;16.90;11.90;;;7.00;99.90;;;;;;5053368;28;20123;-88
2022/04/12 01:00:09;;;;;;;17.45;11.43;;;7.10;99.90;;;;;;5036388;28;20057;-88
2022/04/12 01:02:36;;;;;;;16.40;11.00;;;6.90;99.90;;;;;;5054673;28;20394;-88
2022/04/12 01:05:03;;;;;;;19.02;10.70;;;7.00;99.90;;;;;;5053574;28;20549;-89
2022/04/12 01:07:30;;;;;;;16.77;11.80;;;6.90;99.90;;;;;;5036487;28;20498;-88
2022/04/12 01:09:56;;;;;;;15.57;11.00;;;6.90;99.90;;;;;;5054492;28;20052;-88
2022/04/12 01:12:22;;;;;;;14.30;11.25;;;6.90;99.90;;;;;;5020351;28;20049;-88
2022/04/12 01:14:48;;;;;;;14.55;10.85;;;6.80;99.90;;;;;;5036802;28;20368;-87
2022/04/12 01:17:17;;;;;;;18.50;12.00;;;6.80;99.90;;;;;;5020114;28;20048;-88
2022/04/12 01:19:43;;;;;;;18.05;10.70;;;6.80;99.90;;;;;;5020392;28;20048;-88
2022/04/12 01:22:21;;;;;;;18.15;11.52;;;6.80;99.90;;;;;;5036690;28;20045;-88
2022/04/12 01:24:47;;;;;;;16.55;11.23;;;6.70;99.90;;;;;;5020176;28;20052;-88
2022/04/12 01:27:12;;;;;;;15.73;11.27;;;6.70;99.90;;;;;;5052792;28;20052;-87
2022/04/12 01:29:38;;;;;;;20.45;11.93;;;6.70;99.90;;;;;;5019758;28;20049;-88
2022/04/12 01:32:08;;;;;;;19.85;12.32;;;6.70;99.90;;;;;;5035659;28;20052;-88
2022/04/12 01:34:36;;;;;;;15.82;11.75;;;6.60;99.90;;;;;;5036151;28;20131;-88
2022/04/12 01:37:07;;;;;;;18.48;11.38;;;6.60;99.90;;;;;;5052028;28;20103;-88
2022/04/12 01:39:33;;;;;;;16.83;12.18;;;6.60;99.90;;;;;;5053059;28;20410;-87
2022/04/12 01:41:59;;;;;;;16.95;11.13;;;6.60;99.90;;;;;;5053809;28;20048;-88
2022/04/12 01:44:25;;;;;;;19.52;11.82;;;6.50;99.90;;;;;;5019447;28;20044;-87
2022/04/12 01:46:50;;;;;;;15.77;11.10;;;6.50;99.90;;;;;;5053115;28;20059;-88
2022/04/12 01:49:16;;;;;;;14.15;10.90;;;6.50;99.90;;;;;;5019975;28;20417;-88
2022/04/12 01:51:42;;;;;;;16.92;10.75;;;6.50;99.90;;;;;;5053738;28;20479;-88
2022/04/12 01:54:08;;;;;;;15.80;11.77;;;6.40;99.90;;;;;;5035644;28;20406;-87
2022/04/12 01:56:33;;;;;;;16.83;11.07;;;6.40;99.90;;;;;;5035879;28;20056;-88
2022/04/12 01:59:00;;;;;;;17.35;11.50;;;6.40;99.90;;;;;;5035636;28;20053;-88
2022/04/12 02:01:26;;;;;;;15.63;10.40;;;6.40;99.90;;;;;;5053707;28;20052;-87
2022/04/12 02:03:53;;;;;;;17.70;10.65;;;6.40;99.90;;;;;;5019286;28;20037;-88
2022/04/12 02:06:19;;;;;;;16.63;11.52;;;6.40;99.90;;;;;;5053566;28;20519;-88
2022/04/12 02:08:44;;;;;;;14.48;10.77;;;6.40;99.90;;;;;;5019016;28;20084;-88
2022/04/12 02:11:10;;;;;;;16.92;11.15;;;6.40;99.90;;;;;;5035607;28;20049;-88
2022/04/12 02:13:36;;;;;;;17.30;10.63;;;6.40;99.90;;;;;;5053006;28;20045;-89
2022/04/12 02:16:01;;;;;;;18.42;10.60;;;6.40;99.90;;;;;;5019134;28;20048;-88
2022/04/12 02:18:27;;;;;;;15.35;10.38;;;6.40;99.90;;;;;;5052181;28;20041;-88
2022/04/12 02:20:53;;;;;;;18.45;10.38;;;6.40;99.90;;;;;;5035730;28;20049;-88
2022/04/12 02:23:18;;;;;;;15.93;10.40;;;6.30;99.90;;;;;;5052166;28;20490;-88
2022/04/12 02:25:44;;;;;;;15.23;10.50;;;6.30;99.90;;;;;;5035289;28;20040;-88
2022/04/12 02:28:09;;;;;;;14.32;10.15;;;6.30;99.90;;;;;;5034515;28;20536;-88
2022/04/12 02:30:36;;;;;;;20.65;11.10;;;6.30;99.90;;;;;;5035298;28;20059;-88
2022/04/12 02:33:02;;;;;;;14.57;10.35;;;6.20;99.90;;;;;;5035199;28;20048;-88
2022/04/12 02:35:27;;;;;;;13.32;10.50;;;6.30;99.90;;;;;;5034858;28;20114;-88
2022/04/12 02:37:53;;;;;;;12.85;10.48;;;6.20;99.90;;;;;;5018757;28;20111;-88
2022/04/12 02:40:19;;;;;;;14.95;10.73;;;6.20;99.90;;;;;;5018593;28;20060;-87
2022/04/12 02:42:44;;;;;;;15.68;10.48;;;6.10;99.90;;;;;;5018184;28;20488;-88
2022/04/12 02:45:10;;;;;;;19.77;11.05;;;6.10;99.90;;;;;;5034891;28;20048;-87
2022/04/12 02:47:36;;;;;;;13.80;10.57;;;6.10;99.90;;;;;;5018594;28;20403;-88
2022/04/12 02:50:02;;;;;;;17.23;11.02;;;6.00;99.90;;;;;;5018256;28;20102;-88
2022/04/12 02:52:28;;;;;;;15.13;10.25;;;6.00;99.90;;;;;;5052648;28;20041;-88
2022/04/12 02:54:54;;;;;;;16.38;10.60;;;5.90;99.90;;;;;;5018529;28;20510;-88
2022/04/12 02:57:19;;;;;;;18.70;10.52;;;5.90;99.90;;;;;;5051588;28;20075;-87
2022/04/12 02:59:45;;;;;;;15.60;10.90;;;5.90;99.90;;;;;;5018283;28;20048;-88
2022/04/12 03:02:11;;;;;;;15.52;10.98;;;5.80;99.90;;;;;;5052163;28;20060;-87
2022/04/12 03:04:40;;;;;;;16.42;10.95;;;5.80;99.90;;;;;;5017923;28;20406;-88
2022/04/12 03:07:09;;;;;;;14.90;10.65;;;5.80;99.90;;;;;;5018144;28;20438;-88
2022/04/12 03:09:35;;;;;;;15.65;10.57;;;6.00;99.90;;;;;;5052499;28;20056;-88
2022/04/12 03:12:01;;;;;;;13.68;10.60;;;5.80;99.90;;;;;;5034691;28;20048;-88
2022/04/12 03:14:27;;;;;;;13.48;10.55;;;5.80;99.90;;;;;;5034605;28;20055;-88
2022/04/12 03:16:52;;;;;;;17.63;10.73;;;5.90;99.90;;;;;;5052293;28;20375;-88
2022/04/12 03:19:18;;;;;;;15.90;10.57;;;5.90;99.90;;;;;;5034702;28;20049;-88
2022/04/12 03:21:44;;;;;;;13.20;9.93;;;5.90;99.90;;;;;;5052202;28;20083;-87
2022/04/12 03:24:10;;;;;;;14.00;10.27;;;6.00;99.90;;;;;;5017853;28;20057;-88
2022/04/12 03:26:36;;;;;;;13.82;9.73;;;6.00;99.90;;;;;;5034485;28;20059;-87
2022/04/12 03:29:02;;;;;;;13.40;9.85;;;6.00;99.90;;;;;;5034172;28;20438;-88
2022/04/12 03:31:28;;;;;;;14.57;10.18;;;6.10;99.90;;;;;;5052046;28;20102;-88
2022/04/12 03:33:53;;;;;;;16.52;10.25;;;6.30;99.90;;;;;;5034907;28;20076;-88
2022/04/12 03:36:19;;;;;;;18.33;9.43;;;6.20;99.90;;;;;;5052308;28;20494;-87
2022/04/12 03:38:48;;;;;;;17.70;10.68;;;6.10;99.90;;;;;;5051193;28;20049;-87
2022/04/12 03:41:24;;;;;;;17.58;9.85;;;6.10;99.90;;;;;;5018023;28;20078;-87
2022/04/12 03:43:52;;;;;;;13.93;10.20;;;6.30;99.90;;;;;;5052209;28;20525;-88
2022/04/12 03:46:19;;;;;;;17.52;9.90;;;6.00;99.90;;;;;;5051948;28;20080;-88
2022/04/12 03:48:45;;;;;;;15.82;9.57;;;6.00;99.90;;;;;;5052028;28;20048;-87
2022/04/12 03:51:12;;;;;;;17.33;9.95;;;5.90;99.90;;;;;;5018108;28;20452;-88
2022/04/12 03:53:37;;;;;;;14.25;9.98;;;5.90;99.90;;;;;;5051928;28;20084;-88
2022/04/12 03:56:07;;;;;;;15.93;10.05;;;5.80;99.90;;;;;;5018120;28;20103;-88
2022/04/12 03:58:36;;;;;;;14.93;9.25;;;5.80;99.90;;;;;;5033968;28;20501;-88
2022/04/12 04:01:03;;;;;;;16.77;10.60;;;5.80;99.90;;;;;;5036110;28;20099;-87
2022/04/12 04:03:29;;;;;;;16.13;10.27;;;5.80;99.90;;;;;;5021885;28;20052;-88
2022/04/12 04:05:55;;;;;;;16.92;10.40;;;6.00;99.90;;;;;;5054865;28;20041;-88
2022/04/12 04:08:21;;;;;;;14.25;10.18;;;5.70;99.90;;;;;;5054597;28;20501;-87
2022/04/12 04:10:47;;;;;;;19.48;11.38;;;5.70;99.90;;;;;;5055729;28;20052;-87
2022/04/12 04:13:14;;;;;;;15.15;10.52;;;5.90;99.90;;;;;;5021508;28;20053;-87
2022/04/12 04:15:40;;;;;;;15.15;10.10;;;5.80;99.90;;;;;;5036930;28;20056;-88
2022/04/12 04:18:09;;;;;;;16.48;10.93;;;5.70;99.90;;;;;;5055614;28;20691;-87
2022/04/12 04:20:35;;;;;;;18.60;10.52;;;5.60;99.90;;;;;;5021382;28;20051;-88
2022/04/12 04:23:01;;;;;;;18.88;10.48;;;5.60;99.90;;;;;;5054492;28;20056;-87
2022/04/12 04:25:27;;;;;;;17.02;9.98;;;5.60;99.90;;;;;;5054320;28;20077;-88
2022/04/12 04:27:53;;;;;;;15.35;10.25;;;5.50;99.90;;;;;;5037592;28;20449;-88
2022/04/12 04:30:19;;;;;;;14.32;10.20;;;5.50;99.90;;;;;;5055059;28;20091;-88
2022/04/12 04:32:46;;;;;;;14.18;10.10;;;5.50;99.90;;;;;;5037683;28;20079;-87
2022/04/12 04:35:12;;;;;;;14.80;10.02;;;5.50;99.90;;;;;;5054285;28;20052;-88
2022/04/12 04:37:45;;;;;;;13.35;9.88;;;5.50;99.90;;;;;;5054162;28;20499;-87
2022/04/12 04:40:14;;;;;;;14.43;9.90;;;5.40;99.90;;;;;;5037373;28;20494;-88
2022/04/12 04:42:40;;;;;;;15.57;10.35;;;5.40;99.90;;;;;;5037088;28;20136;-87
2022/04/12 04:45:07;;;;;;;16.05;10.25;;;5.40;99.90;;;;;;5054490;28;20052;-88
2022/04/12 04:47:34;;;;;;;14.15;9.45;;;5.40;99.90;;;;;;5036931;28;20049;-87
2022/04/12 04:50:01;;;;;;;16.58;9.73;;;5.40;99.90;;;;;;5021081;28;20040;-87
2022/04/12 04:52:26;;;;;;;15.43;10.18;;;5.40;99.90;;;;;;5054772;28;20125;-88
2022/04/12 04:54:52;;;;;;;15.23;10.02;;;5.40;99.90;;;;;;5054029;28;20041;-87
2022/04/12 04:57:18;;;;;;;16.08;9.95;;;5.40;99.90;;;;;;5053372;28;20045;-88
2022/04/12 04:59:43;;;;;;;17.23;10.32;;;5.30;99.90;;;;;;5054926;28;20064;-87
2022/04/12 05:02:09;;;;;;;16.48;10.38;;;5.30;99.90;;;;;;5053543;28;20053;-88
2022/04/12 05:04:35;;;;;;;17.88;10.65;;;5.30;99.90;;;;;;5037046;28;20497;-88
2022/04/12 05:07:00;;;;;;;16.58;9.55;;;5.30;99.90;;;;;;5054638;28;20120;-87
2022/04/12 05:09:26;;;;;;;16.45;10.57;;;5.40;99.90;;;;;;5036978;28;20058;-87
2022/04/12 05:11:51;;;;;;;14.40;9.93;;;5.50;99.90;;;;;;5054523;28;20497;-87
2022/04/12 05:14:17;;;;;;;13.10;10.05;;;5.40;99.90;;;;;;5052994;28;20045;-88
2022/04/12 05:16:43;;;;;;;16.45;10.70;;;5.70;99.90;;;;;;5037000;28;20064;-87
2022/04/12 05:19:08;;;;;;;17.88;10.52;;;5.50;99.90;;;;;;5036873;28;20088;-87
2022/04/12 05:21:34;;;;;;;15.48;9.30;;;5.80;99.90;;;;;;5019968;28;20060;-87
2022/04/12 05:24:00;;;;;;;14.43;10.07;;;5.60;99.90;;;;;;5020321;28;20079;-87
2022/04/12 05:26:26;;;;;;;16.27;10.32;;;5.80;99.90;;;;;;5020400;28;20057;-87
2022/04/12 05:28:51;;;;;;;14.65;9.73;;;5.80;99.90;;;;;;5035578;28;20136;-87
2022/04/12 05:31:17;;;;;;;18.25;9.80;;;5.80;99.90;;;;;;5036557;28;20057;-88
2022/04/12 05:33:44;;;;;;;18.80;9.85;;;6.10;99.90;;;;;;5036427;28;20044;-87
2022/04/12 05:36:10;;;;;;;14.82;9.43;;;6.10;99.90;;;;;;5054083;28;20088;-88
2022/04/12 05:38:36;;;;;;;14.10;9.23;;;6.10;99.90;;;;;;5036228;28;20088;-88
2022/04/12 05:41:02;;;;;;;13.40;8.98;;;6.30;99.90;;;;;;5053874;28;20095;-88
2022/04/12 05:43:27;;;;;;;16.65;9.95;;;6.40;99.90;;;;;;5052961;28;20080;-88
2022/04/12 05:45:53;;;;;;;13.88;8.82;;;6.50;99.90;;;;;;5035764;28;20486;-87
2022/04/12 05:48:19;;;;;;;15.88;9.60;;;6.60;99.90;;;;;;5020062;28;20103;-87
2022/04/12 05:50:44;;;;;;;16.17;9.13;;;6.70;99.90;;;;;;5019433;28;20092;-88
2022/04/12 05:53:10;;;;;;;12.25;8.80;;;6.90;99.90;;;;;;5019375;28;20144;-88
2022/04/12 05:55:35;;;;;;;16.35;9.45;;;7.10;99.90;;;;;;5019633;28;20187;-88
2022/04/12 05:58:03;;;;;;;13.18;8.52;;;7.20;99.90;;;;;;5018877;28;20107;-88
2022/04/12 06:00:34;;;;;;;12.70;8.88;;;7.30;99.90;;;;;;5035380;28;20445;-88
2022/04/12 06:03:02;;;;;;;12.65;9.55;;;7.40;99.90;;;;;;5036145;28;20061;-88
2022/04/12 06:05:30;;;;;;;12.48;8.25;;;7.50;99.90;;;;;;5036063;28;20045;-88
2022/04/12 06:07:56;;;;;;;13.68;9.07;;;7.50;99.90;;;;;;5053267;28;20132;-88
2022/04/12 06:10:23;;;;;;;16.95;8.95;;;7.70;99.90;;;;;;5035783;28;20057;-89
2022/04/12 06:12:50;;;;;;;14.15;8.27;;;7.80;99.90;;;;;;5036144;28;20076;-89
2022/04/12 06:15:15;;;;;;;13.55;9.05;;;7.70;99.90;;;;;;5018698;28;20057;-89
2022/04/12 06:17:41;;;;;;;13.10;8.95;;;8.10;99.90;;;;;;5035867;28;20099;-89
2022/04/12 06:20:12;;;;;;;11.68;8.48;;;7.90;99.90;;;;;;5019258;28;20053;-89
2022/04/12 06:22:38;;;;;;;11.95;8.05;;;8.00;99.90;;;;;;5035461;28;20049;-89
2022/04/12 06:25:09;;;;;;;13.85;9.07;;;8.10;99.90;;;;;;5035214;28;20056;-89
2022/04/12 06:27:39;;;;;;;11.90;8.65;;;8.30;99.90;;;;;;5018793;28;20045;-88
2022/04/12 06:30:14;;;;;;;10.50;7.90;;;8.30;99.90;;;;;;5035572;28;20041;-89
2022/04/12 06:32:40;;;;;;;13.27;9.05;;;8.40;99.90;;;;;;5019006;28;20405;-88
2022/04/12 06:35:09;;;;;;;15.00;8.77;;;8.60;99.90;;;;;;5052986;28;20079;-88
2022/04/12 06:37:35;;;;;;;13.82;8.80;;;8.50;99.90;;;;;;5052846;28;20376;-88
2022/04/12 06:40:02;;;;;;;13.88;8.60;;;8.60;99.90;;;;;;5018597;28;20052;-88
2022/04/12 06:42:27;;;;;;;13.52;8.45;;;8.60;99.90;;;;;;5052581;28;20525;-88
2022/04/12 06:44:53;;;;;;;12.38;8.38;;;8.60;99.90;;;;;;5051738;28;20080;-88
2022/04/12 06:47:20;;;;;;;12.65;8.73;;;8.70;99.90;;;;;;5035417;28;20045;-88
2022/04/12 06:49:46;;;;;;;15.80;8.65;;;8.50;99.90;;;;;;5051694;28;20059;-88
2022/04/12 06:52:13;;;;;;;12.93;8.27;;;8.50;99.90;;;;;;5051724;28;20052;-88
2022/04/12 06:54:39;;;;;;;13.38;8.40;;;8.40;99.90;;;;;;5052381;28;20565;-89
2022/04/12 06:57:05;;;;;;;14.20;9.10;;;8.40;99.90;;;;;;5018232;28;20088;-89
2022/04/12 06:59:32;;;;;;;15.27;8.85;;;8.40;99.90;;;;;;5017835;28;20059;-89
2022/04/12 07:01:57;;;;;;;13.48;9.20;;;8.40;99.90;;;;;;5034961;28;20132;-88
2022/04/12 07:04:23;;;;;;;13.43;9.10;;;8.50;99.90;;;;;;5017617;28;20144;-88
2022/04/12 07:06:49;;;;;;;11.90;8.40;;;8.60;99.90;;;;;;5051596;28;20033;-89
2022/04/12 07:09:20;;;;;;;12.55;9.52;;;8.90;99.90;;;;;;5034509;28;20049;-89
2022/04/12 07:11:52;;;;;;;11.32;7.97;;;8.70;99.90;;;;;;5034824;28;20057;-88
2022/04/12 07:14:18;;;;;;;12.18;8.50;;;8.80;99.90;;;;;;5052551;28;20052;-89
2022/04/12 07:16:43;;;;;;;13.27;8.60;;;8.80;99.90;;;;;;5034813;28;20561;-89
2022/04/12 07:19:09;;;;;;;12.70;8.63;;;8.80;99.90;;;;;;5018217;28;20052;-89
2022/04/12 07:21:35;;;;;;;11.65;7.95;;;8.80;99.90;;;;;;5034707;28;20045;-89
2022/04/12 07:24:03;;;;;;;14.88;8.88;;;8.80;99.90;;;;;;5018124;28;20414;-89
2022/04/12 07:26:30;;;;;;;14.15;8.18;;;8.90;99.90;;;;;;5052262;28;20472;-89
2022/04/12 07:28:56;;;;;;;12.65;9.02;;;9.00;99.90;;;;;;5034227;28;20144;-89
2022/04/12 07:31:22;;;;;;;13.15;8.60;;;9.10;99.90;;;;;;5018229;28;20049;-89
2022/04/12 07:33:47;;;;;;;12.00;8.57;;;9.20;99.90;;;;;;5051079;28;20045;-89
2022/04/12 07:36:14;;;;;;;11.68;7.85;;;9.40;99.90;;;;;;5054205;28;20064;-90
2022/04/12 07:38:41;;;;;;;12.63;8.48;;;9.50;99.90;;;;;;5055366;28;20060;-90
2022/04/12 07:41:07;;;;;;;16.60;8.82;;;9.60;99.90;;;;;;5038494;28;20067;-90
2022/04/12 07:43:33;;;;;;;12.18;8.13;;;9.90;99.90;;;;;;5038461;28;20487;-91
2022/04/12 07:45:58;;;;;;;12.27;8.07;;;9.90;99.90;;;;;;5038455;28;20050;-90
2022/04/12 07:48:24;;;;;;;12.88;8.40;;;10.10;99.90;;;;;;5021586;28;20048;-89
2022/04/12 07:50:50;;;;;;;11.18;7.53;;;10.30;99.90;;;;;;5038508;28;20036;-89
2022/04/12 07:53:15;;;;;;;13.40;9.13;;;10.40;99.90;;;;;;5021739;28;20045;-90
2022/04/12 07:55:41;;;;;;;12.27;7.82;;;10.70;99.90;;;;;;5038327;28;20049;-90
2022/04/12 07:58:07;;;;;;;13.10;7.65;;;10.80;99.90;;;;;;5021394;28;20130;-89
2022/04/12 08:00:33;;;;;;;13.23;7.30;;;11.00;99.90;;;;;;5020754;28;20053;-89
2022/04/12 08:02:58;;;;;;;14.23;7.63;;;11.30;99.90;;;;;;5020397;28;20053;-89
2022/04/12 08:05:25;;;;;;;12.20;7.65;;;11.50;99.90;;;;;;5037111;28;20045;-90
2022/04/12 08:07:51;;;;;;;10.77;7.68;;;11.70;99.90;;;;;;5020723;28;20051;-91
2022/04/12 08:10:18;;;;;;;11.73;7.93;;;12.00;99.90;;;;;;5053651;28;20136;-90
2022/04/12 08:12:45;;;;;;;10.07;7.22;;;12.10;99.90;;;;;;5037096;28;20573;-91
2022/04/12 08:15:12;;;;;;;11.00;7.50;;;12.30;99.90;;;;;;5036952;28;20064;-90
2022/04/12 08:17:38;;;;;;;11.82;7.53;;;12.50;99.90;;;;;;5036610;28;20045;-91
2022/04/12 08:20:09;;;;;;;13.25;8.05;;;12.70;99.90;;;;;;5036685;28;20544;-91
2022/04/12 08:22:35;;;;;;;10.07;7.28;;;13.00;99.90;;;;;;5036607;28;20049;-91
2022/04/12 08:25:01;;;;;;;10.93;7.50;;;13.40;99.90;;;;;;5037016;28;20486;-90
2022/04/12 08:27:27;;;;;;;12.98;7.50;;;13.80;99.40;;;;;;5035815;28;20041;-90
2022/04/12 08:29:53;;;;;;;9.57;7.03;;;14.30;97.90;;;;;;5053378;28;20053;-91
2022/04/12 08:32:19;;;;;;;11.45;7.53;;;14.40;97.60;;;;;;5053606;28;20044;-91
2022/04/12 08:34:45;;;;;;;9.35;7.07;;;14.60;97.60;;;;;;5019982;28;20061;-92
2022/04/12 08:37:13;;;;;;;10.82;7.63;;;14.70;97.50;;;;;;5020494;28;20051;-92
2022/04/12 08:39:39;;;;;;;10.63;7.40;;;15.10;97.10;;;;;;5020026;28;20402;-91
2022/04/12 08:42:06;;;;;;;11.45;7.15;;;15.30;96.70;;;;;;5053284;28;20052;-91
2022/04/12 08:44:33;;;;;;;11.75;7.22;;;15.60;95.50;;;;;;5020154;28;20079;-92
2022/04/12 08:47:03;;;;;;;9.27;6.80;;;16.00;93.90;;;;;;5036087;28;20161;-90
2022/04/12 08:49:29;;;;;;;9.35;7.03;;;17.00;84.00;;;;;;5020281;28;20045;-90
2022/04/12 08:51:55;;;;;;;10.00;6.80;;;18.00;77.30;;;;;;5036319;28;20096;-92
2022/04/12 08:54:21;;;;;;;10.02;6.50;;;19.00;67.80;;;;;;5036353;28;20056;-92
2022/04/12 08:56:49;;;;;;;8.93;6.97;;;19.70;65.20;;;;;;5036515;28;20111;-92
2022/04/12 08:59:18;;;;;;;9.93;6.82;;;20.30;60.50;;;;;;4982075;28;1099667;-92
2022/04/12 09:01:46;;;;;;;10.15;7.25;;;20.90;57.00;;;;;;5037835;28;20057;-92
2022/04/12 09:04:12;;;;;;;8.45;6.70;;;21.30;54.40;;;;;;5020663;28;20048;-91
2022/04/12 09:06:51;;;;;;;10.13;6.45;;;21.60;53.80;;;;;;5020486;28;20049;-89
2022/04/12 09:09:19;;;;;;;9.10;6.35;;;22.00;51.10;;;;;;5028265;28;20048;-89
2022/04/12 09:11:55;;;;;;;9.57;6.55;;;22.30;50.60;;;;;;5054863;28;20390;-90
2022/04/12 09:14:21;;;;;;;10.50;6.75;;;22.50;48.50;;;;;;5050893;28;20056;-89
2022/04/12 09:16:47;;;;;;;10.23;6.07;;;22.40;49.00;;;;;;5049858;28;20037;-89
2022/04/12 09:19:13;;;;;;;11.10;6.80;;;22.10;48.40;;;;;;5049879;28;20045;-90
2022/04/12 09:21:46;;;;;;;7.47;5.80;;;21.70;49.20;;;;;;5047953;28;20104;-89
2022/04/12 09:25:03;;;;;;;9.23;6.60;;;21.80;49.80;;;;;;5027435;28;20049;-90
2022/04/12 09:27:32;;;;;;;9.25;6.30;;;22.10;49.90;;;;;;4970939;28;20097;-90
2022/04/12 09:30:15;;;;;;;8.70;6.70;;;22.50;50.70;;;;;;5003974;28;20161;-89
2022/04/12 09:32:44;;;;;;;9.07;6.70;;;23.00;48.30;;;;;;5009899;28;20078;-92
2022/04/12 09:35:11;;;;;;;10.98;6.18;;;23.30;47.20;;;;;;4971988;28;20046;-91
2022/04/12 09:37:39;;;;;;;7.72;6.03;;;23.30;47.10;;;;;;5000146;28;20127;-89
2022/04/12 09:40:11;;;;;;;9.15;6.32;;;23.20;46.30;;;;;;4984204;28;20053;-90
2022/04/12 09:42:50;;;;;;;8.77;6.40;;;23.00;46.20;;;;;;4966471;28;20046;-91
2022/04/12 09:45:20;;;;;;;9.18;6.30;;;23.10;47.50;;;;;;4965410;28;20046;-92
2022/04/12 09:47:47;;;;;;;9.57;6.30;;;23.40;47.20;;;;;;4964146;28;20093;-91
2022/04/12 09:50:13;;;;;;;7.90;6.05;;;23.90;47.30;;;;;;4982082;28;20093;-93
2022/04/12 09:52:39;;;;;;;9.95;5.80;;;24.30;45.20;;;;;;4983830;28;20109;-92
2022/04/12 09:55:08;;;;;;;9.88;6.32;;;24.70;45.20;;;;;;4982945;28;20050;-93
2022/04/12 09:57:38;;;;;;;9.63;6.00;;;24.90;44.00;;;;;;4965956;28;20109;-91
2022/04/12 10:00:04;;;;;;;10.93;6.18;;;24.60;44.10;;;;;;4961577;28;20054;-92
2022/04/12 10:02:33;;;;;;;8.38;6.10;;;24.30;44.10;;;;;;4993459;28;20053;-91
2022/04/12 10:05:03;;;;;;;7.40;5.32;;;24.20;44.90;;;;;;5020493;28;20084;-92
2022/04/12 10:07:33;;;;;;;8.20;5.47;;;24.20;45.30;;;;;;5020181;28;20048;-90
2022/04/12 10:10:03;;;;;;;10.18;5.72;;;24.50;44.20;;;;;;5020288;28;20187;-93
2022/04/12 10:12:30;;;;;;;;;;;24.50;43.70;;;;;;5037364;28;20084;-93
2022/04/12 10:14:56;;;;;;;11.38;5.75;;;24.60;43.30;;;;;;5019527;28;20370;-92
2022/04/12 10:17:23;;;;;;;13.65;6.40;;;24.40;43.70;;;;;;5020854;28;20118;-91
2022/04/12 10:19:49;;;;;;;10.45;6.38;;;24.10;44.70;;;;;;5038690;28;20037;-91
2022/04/12 10:22:15;;;;;;;7.75;6.35;;;24.30;44.10;;;;;;5026730;28;20055;-93
2022/04/12 10:24:40;;;;;;;11.07;6.82;;;24.50;44.10;;;;;;5026979;28;20144;-92
2022/04/12 10:27:08;;;;;;;10.82;6.60;;;24.60;43.60;;;;;;5039302;28;20509;-93
2022/04/12 10:29:34;;;;;;;7.72;6.40;;;25.00;43.00;;;;;;5053830;28;20045;-94
2022/04/12 10:32:03;;;;;;;8.27;7.03;;;25.20;43.30;;;;;;5020174;28;20095;-93
2022/04/12 10:34:28;;;;;;;11.27;6.82;;;25.60;42.60;;;;;;5036694;28;20434;-93
2022/04/12 10:37:10;;;;;;;9.38;6.72;;;25.90;42.50;;;;;;5036488;28;20088;-92
2022/04/12 10:40:01;;;;;;;9.80;6.63;;;26.00;41.30;;;;;;5020476;28;20056;-94
2022/04/12 10:42:33;;;;;;;11.13;6.70;;;26.30;40.80;;;;;;5036568;28;20114;-95
2022/04/12 10:45:02;;;;;;;9.50;6.97;;;26.50;41.60;;;;;;5036789;28;20052;-93
2022/04/12 10:47:37;;;;;;;10.18;7.30;;;26.70;40.80;;;;;;5020311;28;20060;-93
2022/04/12 10:50:08;;;;;;;8.75;6.85;;;27.00;40.30;;;;;;5020710;28;20049;-93
2022/04/12 10:52:41;;;;;;;7.72;6.57;;;27.10;40.00;;;;;;5019921;28;20084;-93
2022/04/12 10:55:08;;;;;;;8.38;6.53;;;27.00;40.60;;;;;;5036465;28;20087;-95
2022/04/12 10:57:35;;;;;;;9.13;7.00;;;27.00;40.60;;;;;;5020944;28;20091;-94
2022/04/12 11:00:08;;;;;;;8.30;6.30;;;27.20;39.40;;;;;;5036697;28;20052;-93
2022/04/12 11:02:43;;;;;;;9.93;7.30;;;27.20;39.90;;;;;;5021284;28;20049;-94
2022/04/12 11:05:37;;;;;;;9.15;6.57;;;27.40;39.00;;;;;;5020272;28;20087;-94
2022/04/12 11:08:06;;;;;;;10.95;7.30;;;27.40;39.50;;;;;;5019733;28;20049;-93
2022/04/12 11:10:32;;;;;;;9.18;6.72;;;27.10;39.20;;;;;;5036349;28;20429;-92
2022/04/12 11:13:11;;;;;;;9.60;6.72;;;26.90;39.80;;;;;;5020552;28;20194;-93
2022/04/12 11:15:40;;;;;;;10.20;7.20;;;26.50;40.00;;;;;;5020843;28;20474;-94
2022/04/12 11:18:10;;;;;;;11.15;6.80;;;26.50;40.60;;;;;;5021269;28;20046;-94
2022/04/12 11:20:37;;;;;;;10.50;6.72;;;26.90;40.90;;;;;;5037073;28;20049;-93
2022/04/12 11:23:11;;;;;;;11.38;7.47;;;27.10;40.50;;;;;;5021436;28;20053;-94
2022/04/12 11:25:51;;;;;;;9.55;7.32;;;26.90;39.90;;;;;;5020686;28;20098;-95
2022/04/12 11:28:24;;;;;;;11.23;7.80;;;26.30;40.00;;;;;;5036175;28;20037;-93
2022/04/12 11:30:58;;;;;;;11.73;7.97;;;25.90;40.60;;;;;;5020022;28;20052;-94
2022/04/12 11:33:28;;;;;;;10.98;7.70;;;26.00;41.20;;;;;;5036882;28;20041;-92
2022/04/12 11:35:56;;;;;;;10.02;7.53;;;25.90;41.10;;;;;;5020199;28;20040;-94
2022/04/12 11:38:22;;;;;;;11.05;7.50;;;25.70;41.30;;;;;;5020693;28;20104;-93
2022/04/12 11:40:49;;;;;;;9.85;6.90;;;25.90;42.30;;;;;;5036781;28;20040;-93
2022/04/12 11:43:26;;;;;;;9.40;7.78;;;26.30;42.20;;;;;;5019918;28;20052;-92
2022/04/12 11:45:54;;;;;;;13.70;7.63;;;26.50;41.80;;;;;;5020376;28;20395;-91
2022/04/12 11:48:21;;;;;;;11.27;7.95;;;26.50;41.20;;;;;;5019546;28;20083;-94
2022/04/12 11:50:57;;;;;;;11.07;7.78;;;26.40;41.00;;;;;;5019907;28;20059;-93
2022/04/12 11:53:26;;;;;;;13.27;7.85;;;26.50;42.00;;;;;;5020533;28;20131;-93
2022/04/12 11:55:58;;;;;;;10.02;7.38;;;26.90;41.20;;;;;;5053369;28;20080;-93
2022/04/12 11:58:28;;;;;;;11.95;8.10;;;27.00;40.80;;;;;;5036584;28;20462;-95
2022/04/12 12:00:54;;;;;;;8.57;7.20;;;27.40;40.40;;;;;;5019823;28;20418;-94
2022/04/12 12:03:21;;;;;;;14.10;7.43;;;27.70;40.10;;;;;;5036247;28;20048;-93
2022/04/12 12:05:56;;;;;;;11.13;7.88;;;28.00;40.80;;;;;;5036227;28;20048;-91
2022/04/12 12:08:22;;;;;;;11.80;7.80;;;28.20;39.50;;;;;;5019587;28;20041;-93
2022/04/12 12:10:52;;;;;;;12.77;7.10;;;28.00;39.30;;;;;;5019515;28;20398;-95
2022/04/12 12:13:23;;;;;;;12.50;6.82;;;27.70;39.40;;;;;;5022274;28;20048;-93
2022/04/12 12:15:48;;;;;;;9.93;6.47;;;27.80;39.60;;;;;;5021659;28;20053;-95
2022/04/12 12:18:18;;;;;;;11.40;6.85;;;28.00;39.70;;;;;;5020103;28;20049;-92
2022/04/12 12:20:45;;;;;;;7.90;6.40;;;28.00;38.80;;;;;;5021072;28;20104;-95
2022/04/12 12:23:11;;;;;;;8.00;6.32;;;27.60;38.50;;;;;;5023968;28;20060;-92
2022/04/12 12:25:44;;;;;;;9.88;6.85;;;27.50;39.20;;;;;;5024217;28;20048;-95
2022/04/12 12:28:15;;;;;;;9.63;7.20;;;27.90;39.20;;;;;;5024333;28;20041;-94
2022/04/12 12:30:43;;;;;;;12.88;6.70;;;28.50;38.40;;;;;;5024280;28;20107;-94
2022/04/12 12:33:11;;;;;;;12.43;6.97;;;28.70;38.20;;;;;;5040283;28;20127;-94
2022/04/12 12:35:41;;;;;;;10.13;7.60;;;29.00;38.60;;;;;;5023548;28;20135;-92
2022/04/12 12:38:27;;;;;;;10.27;7.25;;;29.30;37.50;;;;;;5023862;28;20155;-95
2022/04/12 12:40:56;;;;;;;14.13;7.57;;;29.40;37.70;;;;;;5023198;28;20045;-92
2022/04/12 12:43:25;;;;;;;11.60;7.90;;;29.30;37.20;;;;;;5039601;28;20044;-92
2022/04/12 12:45:51;;;;;;;13.98;8.00;;;29.20;37.30;;;;;;5023466;28;20083;-94